TAF KDCA
KDCA 090531Z 0906/1012 33010KT P6SM SKC FM091000 00000KT P6SM SCT250 FM092000 19003KT P6SM OVC150 FM100100 16004KT P6SM SCT140 FM100900 19006KT P6SM BKN060=
METAR KDCA
KDCA 090652Z 34008KT 10SM SCT200 01/M07 A3013 RMK AO2 SLP203 T00111067 ?
COR KDCA 090552Z 33011KT 10SM SCT200 03/M07 A3012 RMK AO2 SLP200 T00281067 10056 20022 51025 ?
KDCA 090452Z 33010KT 10SM FEW070 BKN200 03/M07 A3011 RMK AO2 SLP195 T00331067 400720028
KDCA 090352Z 33008G18KT 10SM FEW060 SCT200 04/M06 A3009 RMK AO2 SLP187 T00391061 ?
KDCA 090252Z 31012G21KT 10SM SCT060 BKN250 05/M05 A3005 RMK AO2 SLP175 T00501050 53028 ?
WC KDCA
WS KDCA
WV KDCA